createdAt,value
2019-01-21T00:00:21.752Z,0
2019-01-21T00:01:22.453Z,0
2019-01-21T00:02:23.154Z,0
2019-01-21T00:03:23.874Z,0
2019-01-21T00:04:24.570Z,0
2019-01-21T00:05:25.761Z,0
2019-01-21T00:06:26.474Z,0
2019-01-21T00:07:28.097Z,0
2019-01-21T00:08:27.904Z,0
2019-01-21T00:09:28.655Z,0
2019-01-21T00:10:29.359Z,0
2019-01-21T00:11:30.325Z,0
2019-01-21T00:12:31.021Z,0
2019-01-21T00:13:31.728Z,0
2019-01-21T00:14:32.733Z,0
2019-01-21T00:15:33.474Z,0
2019-01-21T00:16:34.151Z,0
2019-01-21T00:17:35.099Z,0
2019-01-21T00:18:35.888Z,0
2019-01-21T00:19:36.773Z,0
2019-01-21T00:20:37.838Z,0
2019-01-21T00:21:39.780Z,0
2019-01-21T00:22:39.378Z,0
2019-01-21T00:23:40.142Z,0
2019-01-21T00:24:41.327Z,0
2019-01-21T00:25:42.399Z,0
2019-01-21T00:26:43.130Z,0
2019-01-21T00:27:43.937Z,0
2019-01-21T00:28:44.692Z,0
2019-01-21T00:29:45.835Z,0
2019-01-21T00:30:46.616Z,0
2019-01-21T00:31:47.336Z,0
2019-01-21T00:32:48.139Z,0
2019-01-21T00:33:48.855Z,0
2019-01-21T00:34:49.557Z,0
2019-01-21T00:35:50.256Z,0
2019-01-21T00:36:51.017Z,0
2019-01-21T00:37:51.814Z,0
2019-01-21T00:38:52.538Z,0
2019-01-21T00:39:53.237Z,0
2019-01-21T00:40:53.954Z,0
2019-01-21T00:41:54.914Z,0
2019-01-21T00:42:55.665Z,0
2019-01-21T00:43:56.369Z,0
2019-01-21T00:44:57.092Z,0
2019-01-21T00:45:57.788Z,0
2019-01-21T00:46:58.485Z,0
2019-01-21T00:47:59.236Z,0
2019-01-21T00:48:59.943Z,0
2019-01-21T00:50:00.687Z,0
2019-01-21T00:51:01.398Z,0
2019-01-21T00:52:02.103Z,0
2019-01-21T00:53:02.807Z,0
2019-01-21T00:54:03.771Z,0
2019-01-21T00:55:04.477Z,0
2019-01-21T00:56:05.178Z,0
2019-01-21T00:57:05.883Z,0
2019-01-21T00:58:06.583Z,0
2019-01-21T00:59:07.296Z,0
2019-01-21T01:00:07.991Z,0
2019-01-21T01:01:08.700Z,0
2019-01-21T01:02:09.863Z,0
2019-01-21T01:03:10.652Z,0
2019-01-21T01:04:11.845Z,0
2019-01-21T01:05:13.335Z,0
2019-01-21T01:06:14.299Z,0
2019-01-21T01:07:14.993Z,0
2019-01-21T01:08:15.703Z,0
2019-01-21T01:09:16.405Z,0
2019-01-21T01:10:17.110Z,0
2019-01-21T01:11:17.821Z,0
2019-01-21T01:12:18.525Z,0
2019-01-21T01:13:19.224Z,0
2019-01-21T01:14:19.936Z,0
2019-01-21T01:15:20.676Z,0
2019-01-21T01:16:21.624Z,0
2019-01-21T01:17:22.427Z,0
2019-01-21T01:18:23.230Z,0
2019-01-21T01:19:24.390Z,0
2019-01-21T01:20:25.163Z,0
2019-01-21T01:21:26.256Z,0
2019-01-21T01:22:27.313Z,0
2019-01-21T01:23:28.382Z,0
2019-01-21T01:24:29.193Z,0
2019-01-21T01:25:30.383Z,0
2019-01-21T01:26:31.119Z,0
2019-01-21T01:27:31.932Z,0
2019-01-21T01:28:32.650Z,0
2019-01-21T01:29:33.667Z,0
2019-01-21T01:30:34.621Z,0
2019-01-21T01:31:35.436Z,0
2019-01-21T01:32:36.166Z,0
2019-01-21T01:33:37.118Z,0
2019-01-21T01:34:37.890Z,0
2019-01-21T01:35:38.609Z,0
2019-01-21T01:36:39.592Z,0
2019-01-21T01:37:40.256Z,0
2019-01-21T01:38:41.405Z,0
2019-01-21T01:39:42.128Z,0
2019-01-21T01:40:42.920Z,0
2019-01-21T01:41:43.720Z,0
2019-01-21T01:42:44.811Z,0
2019-01-21T01:43:45.549Z,0
2019-01-21T01:44:46.287Z,0
2019-01-21T01:45:47.101Z,0
2019-01-21T01:46:48.002Z,0
2019-01-21T01:47:48.741Z,0
2019-01-21T01:48:49.567Z,0
2019-01-21T01:49:50.308Z,0
2019-01-21T01:50:51.112Z,0
2019-01-21T01:51:51.926Z,0
2019-01-21T01:52:52.627Z,0
2019-01-21T01:53:53.428Z,0
2019-01-21T01:54:54.202Z,0
2019-01-21T01:55:54.987Z,0
2019-01-21T01:56:55.728Z,0
2019-01-21T01:57:56.895Z,0
2019-01-21T01:58:57.736Z,0
2019-01-21T01:59:58.553Z,0
2019-01-21T02:00:59.292Z,0
2019-01-21T02:02:00.127Z,0
2019-01-21T02:03:00.878Z,0
2019-01-21T02:04:01.659Z,0
2019-01-21T02:05:02.904Z,0
2019-01-21T02:06:03.611Z,0
2019-01-21T02:07:04.389Z,0
2019-01-21T02:08:05.128Z,0
2019-01-21T02:09:06.090Z,0
2019-01-21T02:10:06.868Z,0
2019-01-21T02:11:07.654Z,0
2019-01-21T02:12:08.869Z,0
2019-01-21T02:13:09.586Z,0
2019-01-21T02:14:10.516Z,0
2019-01-21T02:15:11.231Z,0
2019-01-21T02:16:12.128Z,0
2019-01-21T02:17:12.826Z,0
2019-01-21T02:18:13.908Z,0
2019-01-21T02:19:14.823Z,0
2019-01-21T02:20:15.587Z,0
2019-01-21T02:21:16.299Z,0
2019-01-21T02:22:17.112Z,0
2019-01-21T02:23:17.929Z,0
2019-01-21T02:24:18.701Z,0
2019-01-21T02:25:19.617Z,0
2019-01-21T02:26:20.313Z,0
2019-01-21T02:27:21.078Z,0
2019-01-21T02:28:21.836Z,0
2019-01-21T02:29:22.901Z,0
2019-01-21T02:30:23.634Z,0
2019-01-21T02:31:24.611Z,0
2019-01-21T02:32:25.420Z,0
2019-01-21T02:33:26.131Z,0
2019-01-21T02:34:27.271Z,0
2019-01-21T02:35:28.049Z,0
2019-01-21T02:36:28.821Z,0
2019-01-21T02:37:29.642Z,0
2019-01-21T02:38:30.425Z,0
2019-01-21T02:39:31.147Z,0
2019-01-21T02:40:31.963Z,0
2019-01-21T02:41:32.691Z,0
2019-01-21T02:42:33.669Z,0
2019-01-21T02:43:34.546Z,0
2019-01-21T02:44:35.263Z,0
2019-01-21T02:45:36.041Z,0
2019-01-21T02:46:36.750Z,0
2019-01-21T02:47:37.612Z,0
2019-01-21T02:48:38.583Z,0
2019-01-21T02:49:39.229Z,0
2019-01-21T02:50:40.113Z,0
2019-01-21T02:51:40.847Z,0
2019-01-21T02:52:41.609Z,0
2019-01-21T02:53:42.842Z,0
2019-01-21T02:54:43.584Z,0
2019-01-21T02:55:44.294Z,0
2019-01-21T02:56:45.066Z,0
2019-01-21T02:57:45.994Z,0
2019-01-21T02:58:46.753Z,0
2019-01-21T02:59:47.567Z,0
2019-01-21T03:00:48.287Z,0
2019-01-21T03:01:49.031Z,0
2019-01-21T03:02:49.777Z,0
2019-01-21T03:03:50.599Z,0
2019-01-21T03:04:51.322Z,0
2019-01-21T03:05:52.088Z,0
2019-01-21T03:06:52.985Z,0
2019-01-21T03:07:53.701Z,0
2019-01-21T03:08:54.581Z,0
2019-01-21T03:09:55.561Z,0
2019-01-21T03:10:56.293Z,0
2019-01-21T03:11:57.112Z,0
2019-01-21T03:12:57.841Z,0
2019-01-21T03:13:58.706Z,0
2019-01-21T03:14:59.569Z,0
2019-01-21T03:16:00.325Z,0
2019-01-21T03:17:01.076Z,0
2019-01-21T03:18:07.935Z,0
2019-01-21T03:19:03.094Z,0
2019-01-21T03:20:03.814Z,0
2019-01-21T03:21:04.566Z,0
2019-01-21T03:22:05.514Z,0
2019-01-21T03:23:06.226Z,0
2019-01-21T03:24:07.073Z,0
2019-01-21T03:25:08.336Z,0
2019-01-21T03:26:09.461Z,0
2019-01-21T03:27:10.242Z,0
2019-01-21T03:28:11.093Z,0
2019-01-21T03:29:11.838Z,0
2019-01-21T03:30:12.603Z,0
2019-01-21T03:31:13.806Z,0
2019-01-21T03:32:14.594Z,0
2019-01-21T03:33:15.405Z,0
2019-01-21T03:34:16.213Z,0
2019-01-21T03:35:17.719Z,0
2019-01-21T03:36:18.582Z,0
2019-01-21T03:37:19.357Z,0
2019-01-21T03:38:20.096Z,0
2019-01-21T03:39:20.983Z,0
2019-01-21T03:40:21.749Z,0
2019-01-21T03:41:22.939Z,0
2019-01-21T03:42:23.820Z,0
2019-01-21T03:43:24.882Z,0
2019-01-21T03:44:25.582Z,0
2019-01-21T03:45:26.508Z,0
2019-01-21T03:46:27.286Z,0
2019-01-21T03:47:28.410Z,0
2019-01-21T03:48:29.150Z,0
2019-01-21T03:49:30.016Z,0
2019-01-21T03:50:30.919Z,0
2019-01-21T03:51:31.623Z,0
2019-01-21T03:52:32.546Z,0
2019-01-21T03:53:33.252Z,0
2019-01-21T03:54:34.348Z,0
2019-01-21T03:55:35.261Z,0
2019-01-21T03:56:36.064Z,0
2019-01-21T03:57:36.775Z,0
2019-01-21T03:58:37.636Z,0
2019-01-21T03:59:38.374Z,0
2019-01-21T04:00:39.202Z,0
2019-01-21T04:01:40.004Z,0
2019-01-21T04:02:40.703Z,0
2019-01-21T04:03:41.525Z,0
2019-01-21T04:04:42.240Z,0
2019-01-21T04:05:43.107Z,0
2019-01-21T04:06:43.816Z,0
2019-01-21T04:07:44.582Z,0
2019-01-21T04:08:45.356Z,0
2019-01-21T04:09:46.137Z,0
2019-01-21T04:10:47.402Z,0
2019-01-21T04:11:48.125Z,0
2019-01-21T04:12:48.925Z,0
2019-01-21T04:13:49.635Z,0
2019-01-21T04:14:50.829Z,0
2019-01-21T04:15:51.577Z,0
2019-01-21T04:16:52.484Z,0
2019-01-21T04:17:53.194Z,0
2019-01-21T04:18:54.384Z,0
2019-01-21T04:19:55.111Z,0
2019-01-21T04:20:56.373Z,0
2019-01-21T04:21:57.146Z,0
2019-01-21T04:22:58.049Z,0
2019-01-21T04:23:58.816Z,0
2019-01-21T04:24:59.567Z,0
2019-01-21T04:26:00.455Z,0
2019-01-21T04:27:01.162Z,0
2019-01-21T04:28:02.301Z,0
2019-01-21T04:29:03.165Z,0
2019-01-21T04:30:04.033Z,0
2019-01-21T04:31:04.727Z,0
2019-01-21T04:32:05.824Z,0
2019-01-21T04:33:06.888Z,0
2019-01-21T04:34:07.659Z,0
2019-01-21T04:35:08.847Z,0
2019-01-21T04:36:09.896Z,0
2019-01-21T04:37:10.678Z,0
2019-01-21T04:38:11.599Z,0
2019-01-21T04:39:12.309Z,0
2019-01-21T04:40:13.062Z,0
2019-01-21T04:41:13.825Z,0
2019-01-21T04:42:14.614Z,0
2019-01-21T04:43:15.418Z,0
2019-01-21T04:44:16.140Z,0
2019-01-21T04:45:16.963Z,0
2019-01-21T04:46:19.171Z,0
2019-01-21T04:47:18.906Z,0
2019-01-21T04:48:19.636Z,0
2019-01-21T04:49:20.373Z,0
2019-01-21T04:50:21.110Z,0
2019-01-21T04:51:21.920Z,0
2019-01-21T04:52:22.698Z,0
2019-01-21T04:53:23.777Z,0
2019-01-21T04:54:24.856Z,0
2019-01-21T04:55:25.561Z,0
2019-01-21T04:56:26.757Z,0
2019-01-21T04:57:27.574Z,0
2019-01-21T04:58:28.297Z,0
2019-01-21T04:59:29.080Z,0
2019-01-21T05:00:29.816Z,0
2019-01-21T05:01:30.574Z,0
2019-01-21T05:02:31.745Z,0
2019-01-21T05:03:32.636Z,0
2019-01-21T05:04:33.739Z,0
2019-01-21T05:05:34.810Z,0
2019-01-21T05:06:35.584Z,0
2019-01-21T05:07:36.292Z,0
2019-01-21T05:08:37.144Z,0
2019-01-21T05:09:37.875Z,0
2019-01-21T05:10:38.599Z,0
2019-01-21T05:11:39.748Z,0
2019-01-21T05:12:40.865Z,0
2019-01-21T05:13:41.642Z,0
2019-01-21T05:14:43.954Z,0
2019-01-21T05:15:43.887Z,0
2019-01-21T05:16:44.596Z,0
2019-01-21T05:17:45.818Z,0
2019-01-21T05:18:46.582Z,0
2019-01-21T05:19:48.467Z,0
2019-01-21T05:20:49.093Z,0
2019-01-21T05:21:50.060Z,0
2019-01-21T05:22:50.825Z,0
2019-01-21T05:23:51.606Z,0
2019-01-21T05:24:52.529Z,0
2019-01-21T05:25:53.269Z,0
2019-01-21T05:26:54.133Z,0
2019-01-21T05:27:55.319Z,0
2019-01-21T05:28:56.376Z,0
2019-01-21T05:29:57.107Z,0
2019-01-21T05:30:57.929Z,0
2019-01-21T05:31:58.649Z,0
2019-01-21T05:32:59.421Z,0
2019-01-21T05:34:00.121Z,0
2019-01-21T05:35:00.997Z,0
2019-01-21T05:36:01.775Z,0
2019-01-21T05:37:02.585Z,0
2019-01-21T05:38:03.526Z,0
2019-01-21T05:39:04.238Z,0
2019-01-21T05:40:05.088Z,0
2019-01-21T05:41:05.799Z,0
2019-01-21T05:42:06.625Z,0
2019-01-21T05:43:07.363Z,0
2019-01-21T05:44:08.141Z,0
2019-01-21T05:45:09.239Z,0
2019-01-21T05:46:10.317Z,0
2019-01-21T05:47:11.077Z,0
2019-01-21T05:48:11.978Z,0
2019-01-21T05:49:12.726Z,0
2019-01-21T05:50:13.844Z,0
2019-01-21T05:51:14.608Z,0
2019-01-21T05:52:15.419Z,0
2019-01-21T05:53:16.234Z,0
2019-01-21T05:54:17.018Z,0
2019-01-21T05:55:17.734Z,0
2019-01-21T05:56:18.581Z,0
2019-01-21T05:57:19.788Z,0
2019-01-21T05:58:20.849Z,0
2019-01-21T05:59:21.581Z,0
2019-01-21T06:00:22.360Z,0
2019-01-21T06:01:23.099Z,0
2019-01-21T06:02:24.081Z,0
2019-01-21T06:03:24.810Z,0
2019-01-21T06:04:25.574Z,0
2019-01-21T06:05:26.309Z,0
2019-01-21T06:06:27.076Z,0
2019-01-21T06:07:28.490Z,0
2019-01-21T06:08:28.739Z,0
2019-01-21T06:09:29.551Z,0
2019-01-21T06:10:30.292Z,0
2019-01-21T06:11:31.074Z,0
2019-01-21T06:12:31.967Z,0
2019-01-21T06:13:32.679Z,0
2019-01-21T06:14:33.513Z,0
2019-01-21T06:15:34.240Z,0
2019-01-21T06:16:35.332Z,0
2019-01-21T06:17:36.112Z,0
2019-01-21T06:18:36.903Z,0
2019-01-21T06:19:37.614Z,0
2019-01-21T06:20:38.400Z,0
2019-01-21T06:21:39.128Z,0
2019-01-21T06:22:40.350Z,0
2019-01-21T06:23:41.074Z,0
2019-01-21T06:25:43.332Z,0
2019-01-21T06:26:44.369Z,0
2019-01-21T06:27:45.118Z,0
2019-01-21T06:28:45.983Z,0
2019-01-21T06:29:46.718Z,0
2019-01-21T06:30:47.589Z,0
2019-01-21T06:31:48.327Z,0
2019-01-21T06:32:49.136Z,0
2019-01-21T06:33:50.155Z,0
2019-01-21T06:34:50.958Z,0
2019-01-21T06:35:51.821Z,0
2019-01-21T06:36:52.565Z,0
2019-01-21T06:37:53.734Z,0
2019-01-21T06:38:54.482Z,0
2019-01-21T06:39:55.187Z,0
2019-01-21T06:40:56.083Z,0
2019-01-21T06:41:57.240Z,0
2019-01-21T06:42:58.071Z,4
2019-01-21T06:43:58.775Z,4
2019-01-21T06:44:59.883Z,0
2019-01-21T06:46:00.625Z,4
2019-01-21T06:47:01.789Z,4
2019-01-21T06:48:02.719Z,4
2019-01-21T06:49:04.866Z,8
2019-01-21T06:50:04.257Z,4
2019-01-21T06:51:05.015Z,4
2019-01-21T06:52:05.765Z,8
2019-01-21T06:53:06.694Z,8
2019-01-21T06:54:07.494Z,12
2019-01-21T06:55:08.229Z,12
2019-01-21T06:56:08.998Z,16
2019-01-21T06:57:09.754Z,16
2019-01-21T06:58:10.655Z,20
2019-01-21T06:59:11.508Z,24
2019-01-21T07:00:12.258Z,28
2019-01-21T07:01:13.099Z,32
2019-01-21T07:02:13.995Z,36
2019-01-21T07:03:14.800Z,44
2019-01-21T07:04:15.863Z,48
2019-01-21T07:05:16.616Z,52
2019-01-21T07:06:17.399Z,64
2019-01-21T07:07:18.127Z,72
2019-01-21T07:08:19.134Z,80
2019-01-21T07:09:19.865Z,88
2019-01-21T07:10:20.607Z,104
2019-01-21T07:11:21.438Z,112
2019-01-21T07:12:22.210Z,128
2019-01-21T07:13:22.988Z,144
2019-01-21T07:14:23.677Z,160
2019-01-21T07:15:24.395Z,176
2019-01-21T07:16:25.099Z,196
2019-01-21T07:17:25.809Z,212
2019-01-21T07:18:26.518Z,232
2019-01-21T07:19:27.226Z,252
2019-01-21T07:20:28.304Z,276
2019-01-21T07:21:29.008Z,296
2019-01-21T07:22:29.710Z,320
2019-01-21T07:23:30.455Z,348
2019-01-21T07:24:31.171Z,372
2019-01-21T07:25:31.884Z,400
2019-01-21T07:26:32.586Z,428
2019-01-21T07:27:33.344Z,456
2019-01-21T07:28:34.045Z,484
2019-01-21T07:29:34.750Z,516
2019-01-21T07:30:35.699Z,548
2019-01-21T07:31:36.423Z,580
2019-01-21T07:32:37.186Z,612
2019-01-21T07:33:37.899Z,648
2019-01-21T07:34:38.603Z,684
2019-01-21T07:35:39.307Z,716
2019-01-21T07:36:40.004Z,752
2019-01-21T07:37:40.714Z,792
2019-01-21T07:38:41.475Z,828
2019-01-21T07:39:42.178Z,868
2019-01-21T07:40:42.897Z,904
2019-01-21T07:41:43.592Z,940
2019-01-21T07:42:44.309Z,980
2019-01-21T07:43:45.014Z,1028
2019-01-21T07:44:45.718Z,1072
2019-01-21T07:45:46.437Z,1112
2019-01-21T07:46:47.150Z,1160
2019-01-21T07:47:47.864Z,1200
2019-01-21T07:48:48.568Z,1240
2019-01-21T07:49:49.465Z,1284
2019-01-21T07:50:50.142Z,1328
2019-01-21T07:51:50.863Z,1372
2019-01-21T07:52:51.570Z,1416
2019-01-21T07:53:52.262Z,1468
2019-01-21T07:54:52.982Z,1508
2019-01-21T07:55:53.681Z,1556
2019-01-21T07:56:54.392Z,1604
2019-01-21T07:57:55.100Z,1652
2019-01-21T07:58:55.812Z,1704
2019-01-21T07:59:56.525Z,1752
2019-01-21T08:00:57.226Z,1804
2019-01-21T08:01:57.944Z,1856
2019-01-21T08:02:58.658Z,1900
2019-01-21T08:03:59.362Z,1944
2019-01-21T08:05:00.086Z,1992
2019-01-21T08:06:00.775Z,2036
2019-01-21T08:07:01.479Z,2080
2019-01-21T08:08:02.193Z,2120
2019-01-21T08:09:02.908Z,2156
2019-01-21T08:10:03.763Z,2196
2019-01-21T08:11:04.464Z,2236
2019-01-21T08:12:05.183Z,2264
2019-01-21T08:13:05.890Z,2300
2019-01-21T08:14:06.599Z,2336
2019-01-21T08:15:07.316Z,2372
2019-01-21T08:16:08.011Z,2412
2019-01-21T08:17:08.713Z,2448
2019-01-21T08:18:09.444Z,2492
2019-01-21T08:19:10.152Z,2520
2019-01-21T08:20:10.873Z,2556
2019-01-21T08:21:11.577Z,2584
2019-01-21T08:22:12.290Z,2628
2019-01-21T08:23:12.996Z,2664
2019-01-21T08:24:13.707Z,2704
2019-01-21T08:25:14.414Z,2748
2019-01-21T08:26:15.179Z,2816
2019-01-21T08:27:15.892Z,2908
2019-01-21T08:28:17.277Z,3060
2019-01-21T08:29:17.522Z,3196
2019-01-21T08:30:18.232Z,3336
2019-01-21T08:31:19.202Z,3396
2019-01-21T08:32:19.910Z,3352
2019-01-21T08:33:20.617Z,3348
2019-01-21T08:34:21.572Z,3352
2019-01-21T08:35:22.362Z,3432
2019-01-21T08:36:23.064Z,3448
2019-01-21T08:37:23.766Z,3388
2019-01-21T08:38:24.515Z,3540
2019-01-21T08:39:25.231Z,3644
2019-01-21T08:40:26.208Z,3476
2019-01-21T08:41:26.911Z,3484
2019-01-21T08:42:27.621Z,3556
2019-01-21T08:43:28.336Z,3532
2019-01-21T08:44:29.040Z,3424
2019-01-21T08:45:29.746Z,3392
2019-01-21T08:46:30.462Z,3472
2019-01-21T08:47:31.320Z,3568
2019-01-21T08:48:32.037Z,3676
2019-01-21T08:49:32.751Z,3724
2019-01-21T08:50:33.466Z,3752
2019-01-21T08:51:34.370Z,3764
2019-01-21T08:52:34.998Z,3812
2019-01-21T08:53:35.702Z,4096
2019-01-21T08:54:36.621Z,4352
2019-01-21T08:55:37.666Z,4392
2019-01-21T08:56:38.380Z,4888
2019-01-21T08:57:39.096Z,4744
2019-01-21T08:58:39.800Z,4964
2019-01-21T08:59:40.509Z,5464
2019-01-21T09:00:41.242Z,5372
2019-01-21T09:01:41.999Z,4576
2019-01-21T09:02:43.178Z,4324
2019-01-21T09:03:43.894Z,4880
2019-01-21T09:04:44.586Z,4972
2019-01-21T09:05:45.339Z,5072
2019-01-21T09:06:46.057Z,5140
2019-01-21T09:07:46.827Z,4888
2019-01-21T09:08:47.534Z,4660
2019-01-21T09:09:48.290Z,4760
2019-01-21T09:10:49.014Z,4692
2019-01-21T09:11:49.719Z,4360
2019-01-21T09:12:50.436Z,4132
2019-01-21T09:13:51.156Z,4040
2019-01-21T09:14:51.914Z,4008
2019-01-21T09:15:52.641Z,4032
2019-01-21T09:16:53.367Z,4124
2019-01-21T09:17:54.070Z,4220
2019-01-21T09:18:54.786Z,4408
2019-01-21T09:19:55.503Z,4744
2019-01-21T09:20:56.206Z,5016
2019-01-21T09:21:56.930Z,5232
2019-01-21T09:22:57.642Z,5192
2019-01-21T09:23:58.348Z,5328
2019-01-21T09:24:59.062Z,6036
2019-01-21T09:25:59.765Z,5804
2019-01-21T09:27:00.578Z,5316
2019-01-21T09:28:01.287Z,5204
2019-01-21T09:29:02.007Z,4796
2019-01-21T09:30:02.715Z,4528
2019-01-21T09:31:03.433Z,4624
2019-01-21T09:32:04.186Z,4912
2019-01-21T09:33:05.143Z,5100
2019-01-21T09:34:05.856Z,5212
2019-01-21T09:35:06.569Z,5800
2019-01-21T09:36:07.273Z,5932
2019-01-21T09:37:08.077Z,5572
2019-01-21T09:38:08.785Z,5832
2019-01-21T09:39:09.488Z,5944
2019-01-21T09:40:10.205Z,5376
2019-01-21T09:41:10.913Z,5036
2019-01-21T09:42:12.121Z,5636
2019-01-21T09:43:12.833Z,6300
2019-01-21T09:44:13.694Z,6352
2019-01-21T09:45:14.401Z,5844
2019-01-21T09:46:15.112Z,5204
2019-01-21T09:47:16.069Z,5508
2019-01-21T09:48:16.772Z,5788
2019-01-21T09:49:17.482Z,6148
2019-01-21T09:50:18.459Z,6572
2019-01-21T09:51:19.172Z,5856
2019-01-21T09:52:19.878Z,5784
2019-01-21T09:53:20.590Z,6672
2019-01-21T09:54:21.313Z,7264
2019-01-21T09:55:22.020Z,7424
2019-01-21T09:56:22.733Z,7180
2019-01-21T09:57:23.453Z,7036
2019-01-21T09:58:24.156Z,7872
2019-01-21T09:59:24.870Z,8436
2019-01-21T10:00:25.579Z,8372
2019-01-21T10:01:26.308Z,8820
2019-01-21T10:02:27.008Z,9260
2019-01-21T10:03:27.864Z,10160
2019-01-21T10:04:28.569Z,10784
2019-01-21T10:05:29.280Z,9768
2019-01-21T10:06:30.001Z,8020
2019-01-21T10:07:30.709Z,7296
2019-01-21T10:08:31.675Z,9132
2019-01-21T10:09:32.390Z,8456
2019-01-21T10:10:33.299Z,7188
2019-01-21T10:11:34.005Z,6752
2019-01-21T10:12:34.718Z,6412
2019-01-21T10:13:35.431Z,7768
2019-01-21T10:14:36.140Z,8908
2019-01-21T10:15:36.957Z,8820
2019-01-21T10:16:37.674Z,9344
2019-01-21T10:17:38.395Z,9212
2019-01-21T10:18:39.106Z,7872
2019-01-21T10:19:39.828Z,7828
2019-01-21T10:20:40.543Z,8088
2019-01-21T10:21:41.258Z,8152
2019-01-21T10:22:41.971Z,9428
2019-01-21T10:23:42.680Z,9596
2019-01-21T10:24:43.397Z,8364
2019-01-21T10:25:44.101Z,8092
2019-01-21T10:26:44.814Z,8076
2019-01-21T10:27:45.529Z,9048
2019-01-21T10:28:46.244Z,9200
2019-01-21T10:29:46.956Z,8472
2019-01-21T10:30:47.939Z,8624
2019-01-21T10:31:48.644Z,8312
2019-01-21T10:32:49.361Z,7940
2019-01-21T10:33:50.063Z,8200
2019-01-21T10:34:50.772Z,7908
2019-01-21T10:35:51.489Z,6916
2019-01-21T10:36:52.202Z,6772
2019-01-21T10:37:52.972Z,6176
2019-01-21T10:38:53.687Z,5788
2019-01-21T10:39:54.403Z,5316
2019-01-21T10:40:55.116Z,5588
2019-01-21T10:41:55.829Z,6440
2019-01-21T10:42:56.535Z,7712
2019-01-21T10:43:57.248Z,8692
2019-01-21T10:44:57.968Z,10068
2019-01-21T10:45:58.687Z,9752
2019-01-21T10:46:59.396Z,7980
2019-01-21T10:48:00.123Z,9812
2019-01-21T10:49:00.847Z,11268
2019-01-21T10:50:01.552Z,9404
2019-01-21T10:51:02.268Z,10208
2019-01-21T10:52:02.994Z,11452
2019-01-21T10:53:03.957Z,11820
2019-01-21T10:54:04.671Z,12740
2019-01-21T10:55:05.386Z,13104
2019-01-21T10:56:06.092Z,13500
2019-01-21T10:57:06.798Z,13588
2019-01-21T10:58:07.506Z,13052
2019-01-21T10:59:08.251Z,12180
2019-01-21T11:00:08.961Z,9856
2019-01-21T11:01:09.665Z,10836
2019-01-21T11:02:10.396Z,13100
2019-01-21T11:03:11.116Z,13700
2019-01-21T11:04:11.836Z,13272
2019-01-21T11:05:12.558Z,11760
2019-01-21T11:06:13.268Z,11464
2019-01-21T11:07:13.984Z,11556
2019-01-21T11:08:14.708Z,12304
2019-01-21T11:09:15.421Z,14096
2019-01-21T11:10:16.132Z,15052
2019-01-21T11:11:16.845Z,15536
2019-01-21T11:12:17.565Z,15172
2019-01-21T11:13:18.384Z,13744
2019-01-21T11:14:19.109Z,12128
2019-01-21T11:15:19.825Z,11028
2019-01-21T11:16:20.539Z,10228
2019-01-21T11:17:21.255Z,10648
2019-01-21T11:18:22.225Z,10808
2019-01-21T11:19:23.290Z,10480
2019-01-21T11:20:23.995Z,10456
2019-01-21T11:21:24.712Z,10080
2019-01-21T11:22:25.439Z,10196
2019-01-21T11:23:26.148Z,10196
2019-01-21T11:24:26.927Z,12320
2019-01-21T11:25:27.645Z,13880
2019-01-21T11:26:28.614Z,13304
2019-01-21T11:27:29.323Z,14020
2019-01-21T11:28:30.042Z,14280
2019-01-21T11:29:30.746Z,14008
2019-01-21T11:30:31.465Z,12180
2019-01-21T11:31:32.182Z,10152
2019-01-21T11:32:32.894Z,7584
2019-01-21T11:33:33.615Z,7468
2019-01-21T11:34:34.339Z,10824
2019-01-21T11:35:35.060Z,9580
2019-01-21T11:36:35.762Z,9008
2019-01-21T11:37:36.487Z,8624
2019-01-21T11:38:37.195Z,9228
2019-01-21T11:39:37.955Z,10604
2019-01-21T11:40:38.661Z,10380
2019-01-21T11:41:39.388Z,8512
2019-01-21T11:42:40.103Z,8444
2019-01-21T11:43:40.832Z,10088
2019-01-21T11:44:41.555Z,9936
2019-01-21T11:45:42.258Z,9392
2019-01-21T11:46:42.981Z,11176
2019-01-21T11:47:44.077Z,11076
2019-01-21T11:48:44.800Z,11112
2019-01-21T11:49:45.931Z,10300
2019-01-21T11:50:46.719Z,9440
2019-01-21T11:51:47.489Z,9036
2019-01-21T11:52:48.208Z,8060
2019-01-21T11:53:48.920Z,8024
2019-01-21T11:54:49.635Z,8020
2019-01-21T11:55:50.351Z,8624
2019-01-21T11:56:51.343Z,8768
2019-01-21T11:57:52.045Z,9444
2019-01-21T11:58:53.020Z,10460
2019-01-21T11:59:53.725Z,11332
2019-01-21T12:00:54.452Z,12392
2019-01-21T12:01:55.165Z,11120
2019-01-21T12:02:55.889Z,9592
2019-01-21T12:03:56.599Z,9472
2019-01-21T12:04:57.327Z,10664
2019-01-21T12:05:58.043Z,14944
2019-01-21T12:06:58.749Z,14452
2019-01-21T12:07:59.468Z,12844
2019-01-21T12:09:00.187Z,11844
2019-01-21T12:10:01.573Z,11876
2019-01-21T12:11:02.442Z,12720
2019-01-21T12:12:03.161Z,13204
2019-01-21T12:13:03.882Z,12756
2019-01-21T12:14:04.588Z,11656
2019-01-21T12:15:05.306Z,11116
2019-01-21T12:16:06.005Z,10212
2019-01-21T12:17:06.722Z,9200
2019-01-21T12:18:07.441Z,8960
2019-01-21T12:19:08.156Z,9752
2019-01-21T12:20:08.884Z,10556
2019-01-21T12:21:09.595Z,10388
2019-01-21T12:22:10.316Z,11224
2019-01-21T12:23:11.029Z,10660
2019-01-21T12:24:11.775Z,10776
2019-01-21T12:25:12.493Z,8036
2019-01-21T12:26:13.211Z,6960
2019-01-21T12:27:13.928Z,6448
2019-01-21T12:28:14.647Z,6564
2019-01-21T12:29:15.410Z,7736
2019-01-21T12:30:16.126Z,7284
2019-01-21T12:31:16.836Z,7152
2019-01-21T12:32:17.555Z,8028
2019-01-21T12:33:18.270Z,8392
2019-01-21T12:34:18.980Z,8600
2019-01-21T12:35:19.705Z,8824
2019-01-21T12:36:20.428Z,8568
2019-01-21T12:37:21.142Z,9304
2019-01-21T12:38:21.852Z,9676
2019-01-21T12:39:22.564Z,9852
2019-01-21T12:40:23.282Z,9928
2019-01-21T12:41:24.053Z,10020
2019-01-21T12:42:24.820Z,10392
2019-01-21T12:43:25.534Z,10192
2019-01-21T12:44:26.300Z,10084
2019-01-21T12:45:27.024Z,9688
2019-01-21T12:46:28.129Z,9080
2019-01-21T12:47:29.145Z,8864
2019-01-21T12:48:29.875Z,9060
2019-01-21T12:49:30.583Z,8356
2019-01-21T12:50:31.339Z,8248
2019-01-21T12:51:32.133Z,8596
2019-01-21T12:52:32.939Z,8688
2019-01-21T12:53:33.645Z,8264
2019-01-21T12:54:34.360Z,7772
2019-01-21T12:55:35.130Z,7572
2019-01-21T12:56:35.860Z,7620
2019-01-21T12:57:36.565Z,7692
2019-01-21T12:58:37.285Z,7776
2019-01-21T12:59:38.007Z,7456
2019-01-21T13:00:38.711Z,6928
2019-01-21T13:01:39.434Z,6744
2019-01-21T13:02:40.149Z,6680
2019-01-21T13:03:40.870Z,6444
2019-01-21T13:04:41.579Z,6284
2019-01-21T13:05:42.296Z,6068
2019-01-21T13:06:43.012Z,6328
2019-01-21T13:07:43.729Z,6588
2019-01-21T13:08:44.437Z,6484
2019-01-21T13:09:45.300Z,6356
2019-01-21T13:10:46.018Z,5944
2019-01-21T13:11:46.725Z,5500
2019-01-21T13:12:47.438Z,5408
2019-01-21T13:13:48.159Z,5508
2019-01-21T13:14:49.116Z,5440
2019-01-21T13:15:50.083Z,5268
2019-01-21T13:16:50.795Z,5352
2019-01-21T13:17:51.508Z,5244
2019-01-21T13:18:52.223Z,5268
2019-01-21T13:19:52.934Z,5296
2019-01-21T13:20:53.705Z,5132
2019-01-21T13:21:54.449Z,5012
2019-01-21T13:22:55.152Z,5012
2019-01-21T13:23:55.873Z,5128
2019-01-21T13:24:57.467Z,5096
2019-01-21T13:25:58.483Z,5092
2019-01-21T13:26:59.166Z,5000
2019-01-21T13:27:59.913Z,5112
2019-01-21T13:29:00.634Z,5332
2019-01-21T13:30:02.474Z,5284
2019-01-21T13:31:02.784Z,5224
2019-01-21T13:32:03.491Z,5104
2019-01-21T13:33:04.200Z,5000
2019-01-21T13:34:05.215Z,4960
2019-01-21T13:35:05.921Z,5108
2019-01-21T13:36:06.649Z,5124
2019-01-21T13:37:07.398Z,5064
2019-01-21T13:38:08.130Z,5060
2019-01-21T13:39:08.848Z,5108
2019-01-21T13:40:09.564Z,5008
2019-01-21T13:41:10.295Z,5008
2019-01-21T13:42:11.058Z,5084
2019-01-21T13:43:11.807Z,5332
2019-01-21T13:44:12.529Z,5192
2019-01-21T13:45:13.236Z,5024
2019-01-21T13:46:14.314Z,4624
2019-01-21T13:47:15.019Z,4632
2019-01-21T13:48:15.724Z,4704
2019-01-21T13:49:16.446Z,4860
2019-01-21T13:50:17.153Z,4636
2019-01-21T13:51:17.875Z,4656
2019-01-21T13:52:18.666Z,4688
2019-01-21T13:53:19.409Z,4840
2019-01-21T13:54:20.131Z,4968
2019-01-21T13:55:21.083Z,5452
2019-01-21T13:56:21.799Z,5700
2019-01-21T13:57:22.512Z,5804
2019-01-21T13:58:23.224Z,5688
2019-01-21T13:59:24.032Z,5228
2019-01-21T14:00:24.753Z,5000
2019-01-21T14:01:25.456Z,4832
2019-01-21T14:02:26.160Z,4724
2019-01-21T14:03:26.873Z,4360
2019-01-21T14:04:27.585Z,3940
2019-01-21T14:05:31.080Z,3864
2019-01-21T14:06:29.013Z,3832
2019-01-21T14:07:29.998Z,3916
2019-01-21T14:08:30.710Z,3908
2019-01-21T14:09:31.432Z,3776
2019-01-21T14:10:32.138Z,3736